Time;durP1;ratioP1;P1;durP2;ratioP2;P2;SDS_P1;SDS_P2;PMS_P1;PMS_P2;Temp;Humidity;BMP_temperature;BMP_pressure;BME280_temperature;BME280_humidity;BME280_pressure;Samples;Min_cycle;Max_cycle;Signal;HPM_P1;HPM_P2
2023/12/03 00:02:08;;;;;;;;;;;;;;;;;;5010997;28;19916;-47
2023/12/03 00:04:34;;;;;;;;;;;;;;;;;;5010722;28;19913;-49
2023/12/03 00:07:00;;;;;;;;;;;;;;;;;;5011597;28;19964;-48
2023/12/03 00:09:26;;;;;;;;;;;;;;;;;;5012151;28;19917;-48
2023/12/03 00:11:52;;;;;;;;;;;;;;;;;;5011220;28;20693;-48
2023/12/03 00:14:18;;;;;;;;;;;;;;;;;;5012016;28;19910;-49
2023/12/03 00:16:44;;;;;;;;;;;;;;;;;;5011671;28;19920;-48
2023/12/03 00:19:10;;;;;;;;;;;;;;;;;;5011829;28;19930;-49
2023/12/03 00:21:37;;;;;;;;;;;;;;;;;;5011942;28;19913;-48
2023/12/03 00:24:03;;;;;;;;;;;;;;;;;;5010397;28;19959;-48
2023/12/03 00:26:29;;;;;;;;;;;;;;;;;;5010652;28;19940;-48
2023/12/03 00:28:55;;;;;;;;;;;;;;;;;;5010971;28;19913;-49
2023/12/03 00:31:21;;;;;;;;;;;;;;;;;;5011696;28;20020;-47
2023/12/03 00:33:47;;;;;;;;;;;;;;;;;;5011475;28;19920;-49
2023/12/03 00:36:13;;;;;;;;;;;;;;;;;;5011402;28;20132;-47
2023/12/03 00:38:39;;;;;;;;;;;;;;;;;;5015372;28;19920;-48
2023/12/03 00:41:05;;;;;;;;;;;;;;;;;;5014315;28;19920;-48
2023/12/03 00:43:31;;;;;;;;;;;;;;;;;;5015307;28;20000;-48
2023/12/03 00:45:57;;;;;;;;;;;;;;;;;;5014127;28;19914;-48
2023/12/03 00:48:23;;;;;;;;;;;;;;;;;;5015013;28;19968;-49
2023/12/03 00:50:49;;;;;;;;;;;;;;;;;;5014693;28;19924;-48
2023/12/03 00:53:15;;;;;;;;;;;;;;;;;;5014964;28;19913;-49
2023/12/03 00:55:41;;;;;;;;;;;;;;;;;;5014115;28;20009;-51
2023/12/03 00:58:08;;;;;;;;;;;;;;;;;;5014878;28;19920;-48
2023/12/03 01:00:34;;;;;;;;;;;;;;;;;;5014859;28;20011;-48
2023/12/03 01:03:00;;;;;;;;;;;;;;;;;;5014960;28;19917;-48
2023/12/03 01:05:26;;;;;;;;;;;;;;;;;;5015079;28;19920;-48
2023/12/03 01:07:52;;;;;;;;;;;;;;;;;;5014604;28;19913;-49
2023/12/03 01:10:18;;;;;;;;;;;;;;;;;;5014902;28;19918;-47
2023/12/03 01:12:44;;;;;;;;;;;;;;;;;;5014932;28;19917;-49
2023/12/03 01:15:10;;;;;;;;;;;;;;;;;;5014416;28;19959;-48
2023/12/03 01:17:36;;;;;;;;;;;;;;;;;;5013449;28;19921;-47
2023/12/03 01:20:02;;;;;;;;;;;;;;;;;;5014863;28;19921;-48
2023/12/03 01:22:28;;;;;;;;;;;;;;;;;;5013181;28;19920;-48
2023/12/03 01:24:54;;;;;;;;;;;;;;;;;;5014564;28;19924;-48
2023/12/03 01:27:20;;;;;;;;;;;;;;;;;;5013350;28;19913;-48
2023/12/03 01:29:46;;;;;;;;;;;;;;;;;;5014458;28;19922;-51
2023/12/03 01:32:12;;;;;;;;;;;;;;;;;;5012544;28;20386;-48
2023/12/03 01:34:38;;;;;;;;;;;;;;;;;;5013071;28;20449;-49
2023/12/03 01:37:04;;;;;;;;;;;;;;;;;;5013842;28;19913;-49
2023/12/03 01:39:30;;;;;;;;;;;;;;;;;;5014192;28;19948;-49
2023/12/03 01:41:56;;;;;;;;;;;;;;;;;;5014315;28;19921;-48
2023/12/03 01:44:22;;;;;;;;;;;;;;;;;;5012901;28;19913;-46
2023/12/03 01:46:48;;;;;;;;;;;;;;;;;;5013869;28;20302;-47
2023/12/03 01:49:14;;;;;;;;;;;;;;;;;;5011954;28;19949;-48
2023/12/03 01:51:41;;;;;;;;;;;;;;;;;;5014369;28;19914;-48
2023/12/03 01:54:07;;;;;;;;;;;;;;;;;;5014042;28;19925;-49
2023/12/03 01:56:33;;;;;;;;;;;;;;;;;;5012568;28;19914;-49
2023/12/03 01:58:59;;;;;;;;;;;;;;;;;;5013840;28;19976;-47
2023/12/03 02:01:25;;;;;;;;;;;;;;;;;;5013720;28;19917;-51
2023/12/03 02:03:51;;;;;;;;;;;;;;;;;;5013730;28;19967;-49
2023/12/03 02:06:17;;;;;;;;;;;;;;;;;;5013606;28;19921;-49
2023/12/03 02:08:43;;;;;;;;;;;;;;;;;;5013390;28;20409;-47
2023/12/03 02:11:09;;;;;;;;;;;;;;;;;;5012447;28;19917;-49
2023/12/03 02:13:35;;;;;;;;;;;;;;;;;;5012699;28;19913;-49
2023/12/03 02:16:01;;;;;;;;;;;;;;;;;;5012633;28;20266;-49
2023/12/03 02:18:27;;;;;;;;;;;;;;;;;;5013690;28;19913;-48
2023/12/03 02:20:53;;;;;;;;;;;;;;;;;;5012397;28;19917;-50
2023/12/03 02:23:19;;;;;;;;;;;;;;;;;;5012314;28;19956;-49
2023/12/03 02:25:47;;;;;;;;;;;;;;;;;;5011982;28;19913;-49
2023/12/03 02:28:13;;;;;;;;;;;;;;;;;;5010195;28;19936;-48
2023/12/03 02:30:39;;;;;;;;;;;;;;;;;;5011306;28;20015;-48
2023/12/03 02:33:05;;;;;;;;;;;;;;;;;;5012057;28;19921;-49
2023/12/03 02:35:31;;;;;;;;;;;;;;;;;;5012581;28;19920;-49
2023/12/03 02:37:57;;;;;;;;;;;;;;;;;;5012407;28;19953;-48
2023/12/03 02:40:23;;;;;;;;;;;;;;;;;;5012041;28;19921;-48
2023/12/03 02:42:49;;;;;;;;;;;;;;;;;;5010846;28;19920;-49
2023/12/03 02:45:15;;;;;;;;;;;;;;;;;;5011691;28;19952;-48
2023/12/03 02:47:41;;;;;;;;;;;;;;;;;;5013131;28;19920;-48
2023/12/03 02:50:07;;;;;;;;;;;;;;;;;;4994734;28;19917;-49
2023/12/03 02:52:33;;;;;;;;;;;;;;;;;;5011718;28;19917;-52
2023/12/03 02:54:59;;;;;;;;;;;;;;;;;;5012556;28;20293;-49
2023/12/03 02:57:25;;;;;;;;;;;;;;;;;;5012555;28;19913;-48
2023/12/03 02:59:52;;;;;;;;;;;;;;;;;;5011856;28;19919;-48
2023/12/03 03:02:18;;;;;;;;;;;;;;;;;;5011841;28;19913;-49
2023/12/03 03:04:44;;;;;;;;;;;;;;;;;;5012814;28;20086;-49
2023/12/03 03:07:10;;;;;;;;;;;;;;;;;;5012736;28;19920;-48
2023/12/03 03:09:36;;;;;;;;;;;;;;;;;;5011395;28;20031;-49
2023/12/03 03:12:02;;;;;;;;;;;;;;;;;;5011541;28;19914;-48
2023/12/03 03:14:28;;;;;;;;;;;;;;;;;;5012406;28;19955;-47
2023/12/03 03:16:54;;;;;;;;;;;;;;;;;;5011212;28;20374;-48
2023/12/03 03:19:20;;;;;;;;;;;;;;;;;;5012730;28;20390;-51
2023/12/03 03:21:46;;;;;;;;;;;;;;;;;;5010858;28;19920;-49
2023/12/03 03:24:12;;;;;;;;;;;;;;;;;;5012390;28;19913;-48
2023/12/03 03:26:38;;;;;;;;;;;;;;;;;;5012159;28;19913;-50
2023/12/03 03:29:06;;;;;;;;;;;;;;;;;;5012134;28;19956;-49
2023/12/03 03:31:32;;;;;;;;;;;;;;;;;;5011111;28;20301;-49
2023/12/03 03:33:58;;;;;;;;;;;;;;;;;;5012254;28;19913;-48
2023/12/03 03:36:24;;;;;;;;;;;;;;;;;;5012041;28;20291;-48
2023/12/03 03:38:50;;;;;;;;;;;;;;;;;;5012429;28;20039;-48
2023/12/03 03:41:16;;;;;;;;;;;;;;;;;;5011100;28;19913;-49
2023/12/03 03:43:42;;;;;;;;;;;;;;;;;;5012490;28;19948;-49
2023/12/03 03:46:08;;;;;;;;;;;;;;;;;;5012358;28;19967;-49
2023/12/03 03:48:34;;;;;;;;;;;;;;;;;;5012000;28;19968;-49
2023/12/03 03:51:00;;;;;;;;;;;;;;;;;;5012594;28;19917;-49
2023/12/03 03:53:26;;;;;;;;;;;;;;;;;;5012043;28;19924;-49
2023/12/03 03:55:52;;;;;;;;;;;;;;;;;;5012229;28;19919;-49
2023/12/03 03:58:18;;;;;;;;;;;;;;;;;;5012091;28;19972;-49
2023/12/03 04:00:44;;;;;;;;;;;;;;;;;;5012291;28;19917;-50
2023/12/03 04:03:10;;;;;;;;;;;;;;;;;;5010571;28;19914;-51
2023/12/03 04:05:36;;;;;;;;;;;;;;;;;;5012126;28;19933;-50
2023/12/03 04:08:02;;;;;;;;;;;;;;;;;;5012121;28;20426;-49
2023/12/03 04:10:29;;;;;;;;;;;;;;;;;;5011352;28;19923;-51
2023/12/03 04:12:56;;;;;;;;;;;;;;;;;;5015658;28;20429;-51
2023/12/03 04:15:22;;;;;;;;;;;;;;;;;;5015474;28;19914;-51
2023/12/03 04:17:48;;;;;;;;;;;;;;;;;;5014436;28;19913;-49
2023/12/03 04:20:14;;;;;;;;;;;;;;;;;;5014728;28;20352;-50
2023/12/03 04:22:40;;;;;;;;;;;;;;;;;;5015790;28;19914;-49
2023/12/03 04:25:06;;;;;;;;;;;;;;;;;;5015795;28;20366;-50
2023/12/03 04:27:32;;;;;;;;;;;;;;;;;;5015942;28;19918;-49
2023/12/03 04:29:58;;;;;;;;;;;;;;;;;;5014563;28;19933;-49
2023/12/03 04:32:24;;;;;;;;;;;;;;;;;;5015150;28;19921;-49
2023/12/03 04:34:50;;;;;;;;;;;;;;;;;;5015411;28;19913;-49
2023/12/03 04:37:17;;;;;;;;;;;;;;;;;;5015558;28;19914;-49
2023/12/03 04:39:43;;;;;;;;;;;;;;;;;;5015049;28;20264;-48
2023/12/03 04:42:09;;;;;;;;;;;;;;;;;;5015430;28;20444;-47
2023/12/03 04:44:35;;;;;;;;;;;;;;;;;;5015298;28;20305;-49
2023/12/03 04:47:01;;;;;;;;;;;;;;;;;;5015048;28;20406;-49
2023/12/03 04:49:27;;;;;;;;;;;;;;;;;;5015182;28;20392;-49
2023/12/03 04:51:53;;;;;;;;;;;;;;;;;;5013911;28;19935;-48
2023/12/03 04:54:19;;;;;;;;;;;;;;;;;;5015071;28;19925;-48
2023/12/03 04:56:45;;;;;;;;;;;;;;;;;;5015210;28;19967;-48
2023/12/03 04:59:11;;;;;;;;;;;;;;;;;;5014973;28;20290;-48
2023/12/03 05:01:38;;;;;;;;;;;;;;;;;;5014235;28;19975;-49
2023/12/03 05:04:04;;;;;;;;;;;;;;;;;;5014857;28;19925;-49
2023/12/03 05:06:30;;;;;;;;;;;;;;;;;;5014618;28;19967;-48
2023/12/03 05:08:56;;;;;;;;;;;;;;;;;;5015070;28;19913;-48
2023/12/03 05:11:22;;;;;;;;;;;;;;;;;;5013401;28;19925;-48
2023/12/03 05:13:48;;;;;;;;;;;;;;;;;;5015108;28;20003;-49
2023/12/03 05:16:14;;;;;;;;;;;;;;;;;;5014670;28;20305;-48
2023/12/03 05:18:40;;;;;;;;;;;;;;;;;;5012543;28;20351;-49
2023/12/03 05:21:06;;;;;;;;;;;;;;;;;;5014193;28;19913;-50
2023/12/03 05:23:32;;;;;;;;;;;;;;;;;;5013133;28;19920;-48
2023/12/03 05:25:58;;;;;;;;;;;;;;;;;;5014879;28;19996;-48
2023/12/03 05:28:24;;;;;;;;;;;;;;;;;;5014600;28;19917;-48
2023/12/03 05:30:50;;;;;;;;;;;;;;;;;;5013436;28;19918;-48
2023/12/03 05:33:16;;;;;;;;;;;;;;;;;;5014248;28;20020;-49
2023/12/03 05:35:42;;;;;;;;;;;;;;;;;;5014709;28;19913;-50
2023/12/03 05:38:08;;;;;;;;;;;;;;;;;;5012277;28;19914;-52
2023/12/03 05:40:34;;;;;;;;;;;;;;;;;;5014380;28;19914;-49
2023/12/03 05:43:00;;;;;;;;;;;;;;;;;;5014190;28;19914;-48
2023/12/03 05:45:27;;;;;;;;;;;;;;;;;;5013435;28;19913;-49
2023/12/03 05:47:53;;;;;;;;;;;;;;;;;;5014050;28;19920;-49
2023/12/03 05:50:19;;;;;;;;;;;;;;;;;;5014128;28;19917;-49
2023/12/03 05:52:46;;;;;;;;;;;;;;;;;;5014091;28;19913;-49
2023/12/03 05:55:12;;;;;;;;;;;;;;;;;;5012543;28;19918;-49
2023/12/03 05:57:38;;;;;;;;;;;;;;;;;;5013933;28;19913;-48
2023/12/03 06:00:04;;;;;;;;;;;;;;;;;;5014074;28;19925;-49
2023/12/03 06:02:30;;;;;;;;;;;;;;;;;;5013567;28;19913;-48
2023/12/03 06:04:56;;;;;;;;;;;;;;;;;;5012525;28;20020;-48
2023/12/03 06:07:22;;;;;;;;;;;;;;;;;;5013787;28;19914;-48
2023/12/03 06:09:48;;;;;;;;;;;;;;;;;;5013702;28;19921;-48
2023/12/03 06:12:14;;;;;;;;;;;;;;;;;;5013924;28;20242;-48
2023/12/03 06:14:40;;;;;;;;;;;;;;;;;;5013297;28;19956;-49
2023/12/03 06:17:07;;;;;;;;;;;;;;;;;;5013338;28;20382;-48
2023/12/03 06:19:33;;;;;;;;;;;;;;;;;;5013585;28;19920;-48
2023/12/03 06:22:00;;;;;;;;;;;;;;;;;;5013741;28;19956;-48
2023/12/03 06:24:26;;;;;;;;;;;;;;;;;;5013491;28;19948;-48
2023/12/03 06:26:52;;;;;;;;;;;;;;;;;;5013447;28;19913;-48
2023/12/03 06:29:19;;;;;;;;;;;;;;;;;;5013271;28;19914;-48
2023/12/03 06:31:45;;;;;;;;;;;;;;;;;;5013368;28;20002;-47
2023/12/03 06:34:12;;;;;;;;;;;;;;;;;;5012197;28;20393;-47
2023/12/03 06:36:38;;;;;;;;;;;;;;;;;;5013492;28;19957;-47
2023/12/03 06:39:04;;;;;;;;;;;;;;;;;;5012985;28;19918;-48
2023/12/03 06:41:30;;;;;;;;;;;;;;;;;;5013397;28;19913;-49
2023/12/03 06:43:56;;;;;;;;;;;;;;;;;;5012708;28;19956;-49
2023/12/03 06:46:22;;;;;;;;;;;;;;;;;;5012736;28;19948;-47
2023/12/03 06:48:48;;;;;;;;;;;;;;;;;;5013245;28;20513;-48
2023/12/03 06:51:14;;;;;;;;;;;;;;;;;;5012841;28;20448;-49
2023/12/03 06:53:40;;;;;;;;;;;;;;;;;;5012650;28;20366;-49
2023/12/03 06:56:06;;;;;;;;;;;;;;;;;;5012750;28;19961;-47
2023/12/03 06:58:32;;;;;;;;;;;;;;;;;;5012796;28;19920;-49
2023/12/03 07:00:58;;;;;;;;;;;;;;;;;;5011403;28;20333;-49
2023/12/03 07:03:24;;;;;;;;;;;;;;;;;;5012498;28;19913;-48
2023/12/03 07:05:50;;;;;;;;;;;;;;;;;;5013260;28;19957;-49
2023/12/03 07:08:16;;;;;;;;;;;;;;;;;;5010997;28;20305;-46
2023/12/03 07:10:42;;;;;;;;;;;;;;;;;;5012132;28;19968;-46
2023/12/03 07:13:08;;;;;;;;;;;;;;;;;;5012386;28;19961;-47
2023/12/03 07:15:35;;;;;;;;;;;;;;;;;;5012052;28;19917;-47
2023/12/03 07:18:01;;;;;;;;;;;;;;;;;;5003930;28;20051;-45
2023/12/03 07:20:27;;;;;;;;;;;;;;;;;;5011774;28;20031;-46
2023/12/03 07:22:55;;;;;;;;;;;;;;;;;;4994889;28;20460;-45
2023/12/03 07:25:23;;;;;;;;;;;;;;;;;;5002679;28;19914;-46
2023/12/03 07:27:50;;;;;;;;;;;;;;;;;;5007519;28;19913;-49
2023/12/03 07:30:16;;;;;;;;;;;;;;;;;;5010658;28;20028;-49
2023/12/03 07:32:42;;;;;;;;;;;;;;;;;;5009141;28;19920;-48
2023/12/03 07:35:08;;;;;;;;;;;;;;;;;;5010398;28;20393;-48
2023/12/03 07:37:34;;;;;;;;;;;;;;;;;;5008530;28;19944;-50
2023/12/03 07:40:00;;;;;;;;;;;;;;;;;;4995938;28;20301;-48
2023/12/03 07:42:26;;;;;;;;;;;;;;;;;;4991278;28;20385;-49
2023/12/03 07:44:52;;;;;;;;;;;;;;;;;;4991331;28;19936;-47
2023/12/03 07:47:18;;;;;;;;;;;;;;;;;;4992541;28;20309;-46
2023/12/03 07:49:45;;;;;;;;;;;;;;;;;;4991565;28;19922;-47
2023/12/03 07:52:11;;;;;;;;;;;;;;;;;;5010556;28;19921;-46
2023/12/03 07:54:37;;;;;;;;;;;;;;;;;;5010512;28;19922;-46
2023/12/03 07:57:03;;;;;;;;;;;;;;;;;;5010852;28;19913;-46
2023/12/03 07:59:29;;;;;;;;;;;;;;;;;;5010946;28;19968;-46
2023/12/03 08:01:55;;;;;;;;;;;;;;;;;;5010551;28;19920;-47
2023/12/03 08:04:21;;;;;;;;;;;;;;;;;;5012063;28;19914;-48
2023/12/03 08:06:47;;;;;;;;;;;;;;;;;;5010655;28;19914;-48
2023/12/03 08:09:13;;;;;;;;;;;;;;;;;;5012127;28;19918;-47
2023/12/03 08:11:39;;;;;;;;;;;;;;;;;;5012032;28;19960;-46
2023/12/03 08:14:05;;;;;;;;;;;;;;;;;;5012565;28;19913;-49
2023/12/03 08:16:31;;;;;;;;;;;;;;;;;;5012013;28;19913;-48
2023/12/03 08:18:58;;;;;;;;;;;;;;;;;;5012144;28;19920;-49
2023/12/03 08:21:24;;;;;;;;;;;;;;;;;;5010884;28;19920;-49
2023/12/03 08:23:51;;;;;;;;;;;;;;;;;;5011679;28;20000;-50
2023/12/03 08:26:17;;;;;;;;;;;;;;;;;;5010286;28;19913;-48
2023/12/03 08:28:43;;;;;;;;;;;;;;;;;;5011905;28;19960;-47
2023/12/03 08:31:10;;;;;;;;;;;;;;;;;;5012028;28;19917;-48
2023/12/03 08:33:36;;;;;;;;;;;;;;;;;;5010685;28;19913;-47
2023/12/03 08:36:02;;;;;;;;;;;;;;;;;;5011906;28;20016;-48
2023/12/03 08:38:28;;;;;;;;;;;;;;;;;;5011827;28;20032;-47
2023/12/03 08:40:54;;;;;;;;;;;;;;;;;;4993910;28;19917;-47
2023/12/03 08:43:20;;;;;;;;;;;;;;;;;;5011741;28;19920;-47
2023/12/03 08:45:46;;;;;;;;;;;;;;;;;;5011978;28;19959;-47
2023/12/03 08:48:12;;;;;;;;;;;;;;;;;;5011720;28;20006;-45
2023/12/03 08:50:38;;;;;;;;;;;;;;;;;;5011876;28;19913;-49
2023/12/03 08:53:04;;;;;;;;;;;;;;;;;;5011842;28;19924;-49
2023/12/03 08:55:31;;;;;;;;;;;;;;;;;;5010760;28;19922;-47
2023/12/03 08:57:58;;;;;;;;;;;;;;;;;;5013363;28;19913;-46
2023/12/03 09:00:25;;;;;;;;;;;;;;;;;;5014067;28;20374;-47
2023/12/03 09:02:51;;;;;;;;;;;;;;;;;;5015017;28;19914;-48
2023/12/03 09:05:17;;;;;;;;;;;;;;;;;;5015091;28;19924;-50
2023/12/03 09:07:43;;;;;;;;;;;;;;;;;;5013908;28;19945;-48
2023/12/03 09:10:09;;;;;;;;;;;;;;;;;;5015178;28;19917;-48
2023/12/03 09:12:35;;;;;;;;;;;;;;;;;;5013912;28;19957;-47
2023/12/03 09:15:01;;;;;;;;;;;;;;;;;;5015102;28;19917;-47
2023/12/03 09:17:27;;;;;;;;;;;;;;;;;;5013419;28;19913;-49
2023/12/03 09:19:53;;;;;;;;;;;;;;;;;;5013837;28;19973;-49
2023/12/03 09:22:19;;;;;;;;;;;;;;;;;;5015084;28;19920;-47
2023/12/03 09:24:45;;;;;;;;;;;;;;;;;;5014655;28;19967;-47
2023/12/03 09:27:12;;;;;;;;;;;;;;;;;;5014844;28;19921;-51
2023/12/03 09:29:38;;;;;;;;;;;;;;;;;;5014826;28;20043;-47
2023/12/03 09:32:04;;;;;;;;;;;;;;;;;;5013570;28;19924;-49
2023/12/03 09:34:30;;;;;;;;;;;;;;;;;;5014700;28;19964;-48
2023/12/03 09:36:56;;;;;;;;;;;;;;;;;;5014629;28;19920;-49
2023/12/03 09:39:23;;;;;;;;;;;;;;;;;;5013357;28;19952;-48
2023/12/03 09:41:49;;;;;;;;;;;;;;;;;;5014760;28;20008;-47
2023/12/03 09:44:15;;;;;;;;;;;;;;;;;;5014623;28;19921;-50
2023/12/03 09:46:42;;;;;;;;;;;;;;;;;;5012365;28;20390;-47
2023/12/03 09:49:08;;;;;;;;;;;;;;;;;;5014175;28;20283;-48
2023/12/03 09:51:34;;;;;;;;;;;;;;;;;;5012827;28;19922;-49
2023/12/03 09:54:00;;;;;;;;;;;;;;;;;;5012867;28;19917;-50
2023/12/03 09:56:26;;;;;;;;;;;;;;;;;;5014292;28;20341;-47
2023/12/03 09:58:53;;;;;;;;;;;;;;;;;;5013060;28;20382;-47
2023/12/03 10:01:19;;;;;;;;;;;;;;;;;;5014310;28;20382;-48
2023/12/03 10:03:45;;;;;;;;;;;;;;;;;;5014301;28;20397;-48
2023/12/03 10:06:11;;;;;;;;;;;;;;;;;;5014257;28;19913;-49
2023/12/03 10:08:37;;;;;;;;;;;;;;;;;;5014036;28;19914;-48
2023/12/03 10:11:03;;;;;;;;;;;;;;;;;;5014136;28;19922;-50
2023/12/03 10:13:29;;;;;;;;;;;;;;;;;;5013952;28;19956;-49
2023/12/03 10:15:56;;;;;;;;;;;;;;;;;;5014074;28;20016;-46
2023/12/03 10:18:22;;;;;;;;;;;;;;;;;;5013835;28;20310;-46
2023/12/03 10:20:48;;;;;;;;;;;;;;;;;;5012723;28;19914;-46
2023/12/03 10:23:15;;;;;;;;;;;;;;;;;;5013762;28;20397;-46
2023/12/03 10:25:41;;;;;;;;;;;;;;;;;;5013924;28;19956;-48
2023/12/03 10:28:07;;;;;;;;;;;;;;;;;;5012559;28;20294;-47
2023/12/03 10:30:33;;;;;;;;;;;;;;;;;;5013491;28;20011;-47
2023/12/03 10:32:59;;;;;;;;;;;;;;;;;;5013704;28;19921;-48
2023/12/03 10:35:25;;;;;;;;;;;;;;;;;;5013550;28;20393;-48
2023/12/03 10:37:51;;;;;;;;;;;;;;;;;;5012062;28;19914;-47
2023/12/03 10:40:18;;;;;;;;;;;;;;;;;;5013553;28;19945;-47
2023/12/03 10:42:44;;;;;;;;;;;;;;;;;;5013512;28;19914;-47
2023/12/03 10:45:10;;;;;;;;;;;;;;;;;;5013158;28;19913;-47
2023/12/03 10:47:36;;;;;;;;;;;;;;;;;;5013279;28;19921;-49
2023/12/03 10:50:05;;;;;;;;;;;;;;;;;;5013465;28;20305;-47
2023/12/03 10:52:31;;;;;;;;;;;;;;;;;;5012116;28;19941;-47
2023/12/03 10:54:57;;;;;;;;;;;;;;;;;;5011893;28;19917;-48
2023/12/03 10:57:23;;;;;;;;;;;;;;;;;;5013114;28;20440;-48
2023/12/03 10:59:50;;;;;;;;;;;;;;;;;;5013140;28;19937;-48
2023/12/03 11:02:16;;;;;;;;;;;;;;;;;;5013197;28;19913;-49
2023/12/03 11:04:42;;;;;;;;;;;;;;;;;;5012997;28;19913;-48
2023/12/03 11:07:08;;;;;;;;;;;;;;;;;;5012890;28;20341;-47
2023/12/03 11:09:35;;;;;;;;;;;;;;;;;;5011687;28;19925;-46
2023/12/03 11:12:01;;;;;;;;;;;;;;;;;;5012971;28;19913;-47
2023/12/03 11:14:27;;;;;;;;;;;;;;;;;;5012768;28;19955;-50
2023/12/03 11:16:53;;;;;;;;;;;;;;;;;;5012879;28;19937;-48
2023/12/03 11:19:19;;;;;;;;;;;;;;;;;;5011638;28;19959;-48
2023/12/03 11:21:45;;;;;;;;;;;;;;;;;;5012744;28;20335;-48
2023/12/03 11:24:11;;;;;;;;;;;;;;;;;;5011411;28;19913;-48
2023/12/03 11:26:37;;;;;;;;;;;;;;;;;;5011178;28;19920;-46
2023/12/03 11:29:03;;;;;;;;;;;;;;;;;;5012547;28;19918;-48
2023/12/03 11:31:30;;;;;;;;;;;;;;;;;;5012480;28;19971;-47
2023/12/03 11:33:56;;;;;;;;;;;;;;;;;;4994979;28;19909;-48
2023/12/03 11:36:22;;;;;;;;;;;;;;;;;;5011218;28;19913;-48
2023/12/03 11:38:48;;;;;;;;;;;;;;;;;;5011088;28;19920;-49
2023/12/03 11:41:14;;;;;;;;;;;;;;;;;;5012452;28;20405;-50
2023/12/03 11:43:40;;;;;;;;;;;;;;;;;;5012509;28;19913;-48
2023/12/03 11:46:06;;;;;;;;;;;;;;;;;;5012599;28;19909;-49
2023/12/03 11:48:33;;;;;;;;;;;;;;;;;;5011707;28;19913;-48
2023/12/03 11:50:59;;;;;;;;;;;;;;;;;;5006317;28;19917;-49
2023/12/03 11:53:25;;;;;;;;;;;;;;;;;;5012051;28;19922;-48
2023/12/03 11:55:51;;;;;;;;;;;;;;;;;;5012272;28;19964;-51
2023/12/03 11:58:22;;;;;;;;;;;;;;;;;;5012098;28;19985;-50
2023/12/03 12:00:48;;;;;;;;;;;;;;;;;;5011204;28;19920;-49
2023/12/03 12:03:14;;;;;;;;;;;;;;;;;;5012202;28;20119;-48
2023/12/03 12:05:40;;;;;;;;;;;;;;;;;;5018740;28;19921;-50
2023/12/03 12:08:06;;;;;;;;;;;;;;;;;;5012853;28;19913;-49
2023/12/03 12:10:32;;;;;;;;;;;;;;;;;;5010646;28;20370;-50
2023/12/03 12:12:58;;;;;;;;;;;;;;;;;;5011905;28;20005;-48
2023/12/03 12:15:24;;;;;;;;;;;;;;;;;;5011738;28;20301;-50
2023/12/03 12:17:50;;;;;;;;;;;;;;;;;;5010379;28;20444;-49
2023/12/03 12:20:16;;;;;;;;;;;;;;;;;;5012078;28;20382;-50
2023/12/03 12:22:42;;;;;;;;;;;;;;;;;;5010582;28;20298;-52
2023/12/03 12:25:09;;;;;;;;;;;;;;;;;;5010480;28;19922;-50
2023/12/03 12:27:35;;;;;;;;;;;;;;;;;;5011691;28;20026;-49
2023/12/03 12:30:01;;;;;;;;;;;;;;;;;;5010134;28;19918;-49
2023/12/03 12:32:27;;;;;;;;;;;;;;;;;;5008376;28;19957;-50
2023/12/03 12:34:54;;;;;;;;;;;;;;;;;;5012100;28;19913;-48
2023/12/03 12:37:20;;;;;;;;;;;;;;;;;;4996448;28;20353;-49
2023/12/03 12:39:46;;;;;;;;;;;;;;;;;;5012474;28;19940;-48
2023/12/03 12:42:13;;;;;;;;;;;;;;;;;;5014313;28;19988;-49
2023/12/03 12:44:40;;;;;;;;;;;;;;;;;;5013913;28;19918;-48
2023/12/03 12:47:09;;;;;;;;;;;;;;;;;;5013598;28;19956;-49
2023/12/03 12:49:35;;;;;;;;;;;;;;;;;;5013874;28;20032;-49
2023/12/03 12:52:04;;;;;;;;;;;;;;;;;;5012568;28;19928;-48
2023/12/03 12:54:30;;;;;;;;;;;;;;;;;;5013664;28;19917;-50
2023/12/03 12:56:56;;;;;;;;;;;;;;;;;;4995272;28;20534;-49
2023/12/03 12:59:22;;;;;;;;;;;;;;;;;;5014140;28;19973;-49
2023/12/03 13:01:48;;;;;;;;;;;;;;;;;;5014199;28;19913;-49
2023/12/03 13:04:14;;;;;;;;;;;;;;;;;;5015299;28;19939;-49
2023/12/03 13:06:41;;;;;;;;;;;;;;;;;;5014957;28;19920;-49
2023/12/03 13:09:08;;;;;;;;;;;;;;;;;;5015125;28;19956;-49
2023/12/03 13:11:35;;;;;;;;;;;;;;;;;;5014992;28;19928;-49
2023/12/03 13:14:01;;;;;;;;;;;;;;;;;;5014748;28;20394;-50
2023/12/03 13:16:27;;;;;;;;;;;;;;;;;;5014829;28;19959;-49
2023/12/03 13:18:53;;;;;;;;;;;;;;;;;;5015217;28;20445;-49
2023/12/03 13:21:20;;;;;;;;;;;;;;;;;;5014543;28;20263;-50
2023/12/03 13:23:46;;;;;;;;;;;;;;;;;;5011073;28;20028;-49
2023/12/03 13:26:13;;;;;;;;;;;;;;;;;;5013065;28;19917;-49
2023/12/03 13:28:40;;;;;;;;;;;;;;;;;;5012340;28;19936;-48
2023/12/03 13:31:06;;;;;;;;;;;;;;;;;;5011797;28;19921;-48
2023/12/03 13:33:32;;;;;;;;;;;;;;;;;;4992570;28;19918;-50
2023/12/03 13:35:59;;;;;;;;;;;;;;;;;;4999971;28;19920;-51
2023/12/03 13:38:25;;;;;;;;;;;;;;;;;;5012588;28;19918;-48
2023/12/03 13:40:54;;;;;;;;;;;;;;;;;;5013255;28;20365;-52
2023/12/03 13:43:21;;;;;;;;;;;;;;;;;;5012526;28;20005;-48
2023/12/03 13:45:48;;;;;;;;;;;;;;;;;;5013064;28;19913;-49
2023/12/03 13:48:18;;;;;;;;;;;;;;;;;;5012822;28;19972;-49
2023/12/03 13:50:44;;;;;;;;;;;;;;;;;;5013333;28;19968;-48
2023/12/03 13:53:14;;;;;;;;;;;;;;;;;;5012949;28;19913;-52
2023/12/03 13:55:40;;;;;;;;;;;;;;;;;;5012295;28;19924;-48
2023/12/03 13:58:06;;;;;;;;;;;;;;;;;;5013415;28;19925;-48
2023/12/03 14:00:32;;;;;;;;;;;;;;;;;;5013525;28;19921;-47
2023/12/03 14:02:58;;;;;;;;;;;;;;;;;;5014237;28;19972;-49
2023/12/03 14:05:24;;;;;;;;;;;;;;;;;;5014026;28;19921;-48
2023/12/03 14:07:52;;;;;;;;;;;;;;;;;;5013561;28;19920;-49
2023/12/03 14:10:18;;;;;;;;;;;;;;;;;;5013910;28;20048;-42
2023/12/03 14:12:44;;;;;;;;;;;;;;;;;;5028668;22;19913;-47
2023/12/03 14:15:10;;;;;;;;;;;;;;;;;;5012737;28;19921;-48
2023/12/03 14:17:36;;;;;;;;;;;;;;;;;;5013406;28;19920;-47
2023/12/03 14:20:05;;;;;;;;;;;;;;;;;;5013919;28;19913;-46
2023/12/03 14:22:32;;;;;;;;;;;;;;;;;;5013527;28;20313;-47
2023/12/03 14:24:58;;;;;;;;;;;;;;;;;;4994128;28;20009;-48
2023/12/03 14:27:24;;;;;;;;;;;;;;;;;;4994010;28;19914;-50
2023/12/03 14:29:50;;;;;;;;;;;;;;;;;;4994279;28;19955;-47
2023/12/03 14:32:16;;;;;;;;;;;;;;;;;;4976508;28;20315;-48
2023/12/03 14:34:42;;;;;;;;;;;;;;;;;;4993922;28;20386;-47
2023/12/03 14:37:08;;;;;;;;;;;;;;;;;;4993922;28;20370;-47
2023/12/03 14:39:34;;;;;;;;;;;;;;;;;;4993842;28;19976;-47
2023/12/03 14:42:00;;;;;;;;;;;;;;;;;;4993969;28;20354;-47
2023/12/03 14:44:26;;;;;;;;;;;;;;;;;;4993818;28;19914;-47
2023/12/03 14:46:52;;;;;;;;;;;;;;;;;;4976386;28;19946;-47
2023/12/03 14:49:18;;;;;;;;;;;;;;;;;;4993766;28;19956;-47
2023/12/03 14:51:44;;;;;;;;;;;;;;;;;;4993652;28;20362;-47
2023/12/03 14:54:11;;;;;;;;;;;;;;;;;;4975967;28;19914;-48
2023/12/03 14:56:37;;;;;;;;;;;;;;;;;;4975270;28;19910;-47
2023/12/03 14:59:05;;;;;;;;;;;;;;;;;;4975964;28;20456;-47
2023/12/03 15:01:31;;;;;;;;;;;;;;;;;;4993717;28;19921;-47
2023/12/03 15:03:57;;;;;;;;;;;;;;;;;;4993361;28;20367;-47
2023/12/03 15:06:24;;;;;;;;;;;;;;;;;;4993395;28;20167;-49
2023/12/03 15:08:50;;;;;;;;;;;;;;;;;;4975518;28;20342;-47
2023/12/03 15:11:16;;;;;;;;;;;;;;;;;;4992345;28;19957;-50
2023/12/03 15:13:44;;;;;;;;;;;;;;;;;;4993155;28;19918;-51
2023/12/03 15:16:10;;;;;;;;;;;;;;;;;;4975817;28;19972;-49
2023/12/03 15:18:36;;;;;;;;;;;;;;;;;;4993056;28;20028;-47
2023/12/03 15:21:02;;;;;;;;;;;;;;;;;;4975752;28;20362;-47
2023/12/03 15:23:28;;;;;;;;;;;;;;;;;;4975615;28;20161;-49
2023/12/03 15:25:54;;;;;;;;;;;;;;;;;;4993163;28;19914;-47
2023/12/03 15:28:21;;;;;;;;;;;;;;;;;;4992880;28;20298;-49
2023/12/03 15:30:47;;;;;;;;;;;;;;;;;;4992863;28;19918;-51
2023/12/03 15:33:14;;;;;;;;;;;;;;;;;;4974998;28;20000;-48
2023/12/03 15:35:40;;;;;;;;;;;;;;;;;;4975508;28;20374;-47
2023/12/03 15:38:06;;;;;;;;;;;;;;;;;;4991892;28;20016;-48
2023/12/03 15:40:32;;;;;;;;;;;;;;;;;;4975322;28;19921;-48
2023/12/03 15:42:58;;;;;;;;;;;;;;;;;;4992704;28;20314;-48
2023/12/03 15:45:24;;;;;;;;;;;;;;;;;;4975442;28;19948;-48
2023/12/03 15:47:50;;;;;;;;;;;;;;;;;;4975217;28;19924;-49
2023/12/03 15:50:17;;;;;;;;;;;;;;;;;;4955758;28;20307;-51
2023/12/03 15:52:43;;;;;;;;;;;;;;;;;;4981511;28;19913;-47
2023/12/03 15:55:09;;;;;;;;;;;;;;;;;;4974310;28;19914;-50
2023/12/03 15:57:36;;;;;;;;;;;;;;;;;;4992310;28;20387;-48
2023/12/03 16:00:02;;;;;;;;;;;;;;;;;;4992630;28;19918;-49
2023/12/03 16:02:38;;;;;;;;;;;;;;;;;;4991607;28;19920;-51
2023/12/03 16:05:04;;;;;;;;;;;;;;;;;;4992640;28;20409;-49
2023/12/03 16:07:30;;;;;;;;;;;;;;;;;;4978127;28;20305;-50
2023/12/03 16:09:56;;;;;;;;;;;;;;;;;;4978631;28;19917;-49
2023/12/03 16:12:22;;;;;;;;;;;;;;;;;;4996576;28;19960;-48
2023/12/03 16:14:48;;;;;;;;;;;;;;;;;;4996511;28;19917;-48
2023/12/03 16:17:14;;;;;;;;;;;;;;;;;;4978421;28;19914;-50
2023/12/03 16:19:40;;;;;;;;;;;;;;;;;;4996705;28;19918;-51
2023/12/03 16:22:07;;;;;;;;;;;;;;;;;;4996570;28;20012;-50
2023/12/03 16:24:33;;;;;;;;;;;;;;;;;;4998753;28;20000;-51
2023/12/03 16:26:59;;;;;;;;;;;;;;;;;;4984986;28;19910;-50
2023/12/03 16:29:26;;;;;;;;;;;;;;;;;;4976878;28;20386;-49
2023/12/03 16:31:52;;;;;;;;;;;;;;;;;;4992704;28;20413;-50
2023/12/03 16:34:19;;;;;;;;;;;;;;;;;;4977126;28;19921;-48
2023/12/03 16:36:46;;;;;;;;;;;;;;;;;;4994593;28;20011;-49
2023/12/03 16:39:13;;;;;;;;;;;;;;;;;;4994570;28;20386;-49